sensor_id;sensor_type;location;lat;lon;timestamp;pressure;altitude;pressure_sealevel;temperature;humidity
58662;BME280;44432;49.786;22.760;2023-03-25T00:00:30;98315.39;;;14.84;57.18
58662;BME280;44432;49.786;22.760;2023-03-25T00:03:21;98317.08;;;14.77;57.70
58662;BME280;44432;49.786;22.760;2023-03-25T00:05:52;98317.55;;;14.71;58.13
58662;BME280;44432;49.786;22.760;2023-03-25T00:08:23;98312.34;;;14.67;58.46
58662;BME280;44432;49.786;22.760;2023-03-25T00:10:55;98312.73;;;14.61;58.85
58662;BME280;44432;49.786;22.760;2023-03-25T00:13:27;98312.36;;;14.51;59.36
58662;BME280;44432;49.786;22.760;2023-03-25T00:16:00;98307.32;;;14.39;59.51
58662;BME280;44432;49.786;22.760;2023-03-25T00:18:31;98307.65;;;14.31;59.97
58662;BME280;44432;49.786;22.760;2023-03-25T00:21:04;98307.77;;;14.22;60.61
58662;BME280;44432;49.786;22.760;2023-03-25T00:23:39;98304.87;;;14.13;61.08
58662;BME280;44432;49.786;22.760;2023-03-25T00:26:10;98300.42;;;14.04;61.56
58662;BME280;44432;49.786;22.760;2023-03-25T00:28:41;98293.38;;;13.94;62.11
58662;BME280;44432;49.786;22.760;2023-03-25T00:31:13;98290.08;;;13.84;62.67
58662;BME280;44432;49.786;22.760;2023-03-25T00:33:44;98288.13;;;13.76;62.99
58662;BME280;44432;49.786;22.760;2023-03-25T00:36:15;98285.33;;;13.67;63.65
58662;BME280;44432;49.786;22.760;2023-03-25T00:38:48;98283.62;;;13.59;64.28
58662;BME280;44432;49.786;22.760;2023-03-25T00:41:21;98284.48;;;13.50;64.73
58662;BME280;44432;49.786;22.760;2023-03-25T00:43:56;98286.54;;;13.39;65.54
58662;BME280;44432;49.786;22.760;2023-03-25T00:46:28;98292.16;;;13.25;66.30
58662;BME280;44432;49.786;22.760;2023-03-25T00:49:00;98296.77;;;13.14;66.83
58662;BME280;44432;49.786;22.760;2023-03-25T00:51:31;98293.27;;;13.04;67.42
58662;BME280;44432;49.786;22.760;2023-03-25T00:54:02;98288.23;;;12.97;68.00
58662;BME280;44432;49.786;22.760;2023-03-25T00:56:33;98286.02;;;12.91;68.40
58662;BME280;44432;49.786;22.760;2023-03-25T00:59:04;98283.38;;;12.87;68.79
58662;BME280;44432;49.786;22.760;2023-03-25T01:01:34;98284.13;;;12.82;68.95
58662;BME280;44432;49.786;22.760;2023-03-25T01:04:06;98277.15;;;12.78;69.44
58662;BME280;44432;49.786;22.760;2023-03-25T01:06:41;98277.10;;;12.72;70.02
58662;BME280;44432;49.786;22.760;2023-03-25T01:09:14;98272.91;;;12.68;70.23
58662;BME280;44432;49.786;22.760;2023-03-25T01:11:45;98268.21;;;12.63;70.46
58662;BME280;44432;49.786;22.760;2023-03-25T01:14:18;98266.11;;;12.60;70.81
58662;BME280;44432;49.786;22.760;2023-03-25T01:16:48;98261.11;;;12.57;71.11
58662;BME280;44432;49.786;22.760;2023-03-25T01:19:19;98258.63;;;12.53;71.35
58662;BME280;44432;49.786;22.760;2023-03-25T01:21:50;98259.02;;;12.49;71.59
58662;BME280;44432;49.786;22.760;2023-03-25T01:24:20;98258.13;;;12.47;71.75
58662;BME280;44432;49.786;22.760;2023-03-25T01:26:51;98257.95;;;12.45;72.12
58662;BME280;44432;49.786;22.760;2023-03-25T01:29:22;98256.82;;;12.43;72.38
58662;BME280;44432;49.786;22.760;2023-03-25T01:31:53;98251.55;;;12.41;72.61
58662;BME280;44432;49.786;22.760;2023-03-25T01:34:24;98244.01;;;12.38;72.73
58662;BME280;44432;49.786;22.760;2023-03-25T01:36:55;98241.62;;;12.38;73.01
58662;BME280;44432;49.786;22.760;2023-03-25T01:39:26;98237.85;;;12.36;73.12
58662;BME280;44432;49.786;22.760;2023-03-25T01:41:57;98235.48;;;12.33;73.20
58662;BME280;44432;49.786;22.760;2023-03-25T01:47:35;98234.54;;;12.34;73.41
58662;BME280;44432;49.786;22.760;2023-03-25T01:50:07;98228.92;;;12.33;73.57
58662;BME280;44432;49.786;22.760;2023-03-25T01:52:44;98224.37;;;12.32;73.47
58662;BME280;44432;49.786;22.760;2023-03-25T01:55:17;98224.80;;;12.33;73.60
58662;BME280;44432;49.786;22.760;2023-03-25T01:57:50;98222.36;;;12.33;73.64
58662;BME280;44432;49.786;22.760;2023-03-25T02:00:23;98219.95;;;12.30;73.86
58662;BME280;44432;49.786;22.760;2023-03-25T02:02:57;98217.92;;;12.29;73.94
58662;BME280;44432;49.786;22.760;2023-03-25T02:05:35;98223.59;;;12.25;74.01
58662;BME280;44432;49.786;22.760;2023-03-25T02:08:07;98220.86;;;12.22;74.44
58662;BME280;44432;49.786;22.760;2023-03-25T02:10:38;98218.44;;;12.18;74.45
58662;BME280;44432;49.786;22.760;2023-03-25T02:13:09;98220.70;;;12.17;74.77
58662;BME280;44432;49.786;22.760;2023-03-25T02:15:51;98218.55;;;12.14;74.95
58662;BME280;44432;49.786;22.760;2023-03-25T02:18:35;98219.92;;;12.08;75.10
58662;BME280;44432;49.786;22.760;2023-03-25T02:24:48;98220.89;;;12.01;75.62
58662;BME280;44432;49.786;22.760;2023-03-25T02:27:27;98218.38;;;11.98;75.85
58662;BME280;44432;49.786;22.760;2023-03-25T02:33:45;98213.63;;;11.94;76.49
58662;BME280;44432;49.786;22.760;2023-03-25T02:39:31;98213.66;;;11.89;76.79
58662;BME280;44432;49.786;22.760;2023-03-25T02:42:14;98214.17;;;11.87;77.08
58662;BME280;44432;49.786;22.760;2023-03-25T02:44:52;98216.53;;;11.85;77.55
58662;BME280;44432;49.786;22.760;2023-03-25T02:47:29;98214.40;;;11.84;77.83
58662;BME280;44432;49.786;22.760;2023-03-25T02:50:05;98213.66;;;11.85;77.67
58662;BME280;44432;49.786;22.760;2023-03-25T02:52:39;98215.03;;;11.84;77.90
58662;BME280;44432;49.786;22.760;2023-03-25T02:55:13;98213.33;;;11.83;78.11
58662;BME280;44432;49.786;22.760;2023-03-25T02:57:49;98213.45;;;11.84;78.24
58662;BME280;44432;49.786;22.760;2023-03-25T03:00:25;98200.38;;;11.79;78.47
58662;BME280;44432;49.786;22.760;2023-03-25T03:02:58;98204.40;;;11.84;78.36
58662;BME280;44432;49.786;22.760;2023-03-25T03:05:31;98205.51;;;11.84;78.63
58662;BME280;44432;49.786;22.760;2023-03-25T03:08:11;98205.20;;;11.80;78.80
58662;BME280;44432;49.786;22.760;2023-03-25T03:10:51;98192.35;;;11.74;78.82
58662;BME280;44432;49.786;22.760;2023-03-25T03:13:33;98193.76;;;11.72;79.34
58662;BME280;44432;49.786;22.760;2023-03-25T03:16:10;98192.17;;;11.72;79.32
58662;BME280;44432;49.786;22.760;2023-03-25T03:18:51;98194.81;;;11.72;79.68
58662;BME280;44432;49.786;22.760;2023-03-25T03:21:34;98192.15;;;11.70;79.48
58662;BME280;44432;49.786;22.760;2023-03-25T03:24:12;98190.83;;;11.66;79.61
58662;BME280;44432;49.786;22.760;2023-03-25T03:26:48;98193.46;;;11.61;79.78
58662;BME280;44432;49.786;22.760;2023-03-25T03:29:28;98192.90;;;11.54;80.06
58662;BME280;44432;49.786;22.760;2023-03-25T03:32:03;98188.45;;;11.50;80.17
58662;BME280;44432;49.786;22.760;2023-03-25T03:34:39;98195.20;;;11.47;80.54
58662;BME280;44432;49.786;22.760;2023-03-25T03:37:14;98188.62;;;11.47;80.99
58662;BME280;44432;49.786;22.760;2023-03-25T03:39:48;98186.16;;;11.48;81.19
58662;BME280;44432;49.786;22.760;2023-03-25T03:42:24;98179.90;;;11.51;81.15
58662;BME280;44432;49.786;22.760;2023-03-25T03:45:01;98174.24;;;11.54;81.45
58662;BME280;44432;49.786;22.760;2023-03-25T03:47:37;98177.80;;;11.56;81.43
58662;BME280;44432;49.786;22.760;2023-03-25T03:50:13;98185.44;;;11.53;81.32
58662;BME280;44432;49.786;22.760;2023-03-25T03:52:48;98183.33;;;11.50;81.55
58662;BME280;44432;49.786;22.760;2023-03-25T03:55:24;98185.79;;;11.48;81.74
58662;BME280;44432;49.786;22.760;2023-03-25T03:57:59;98186.02;;;11.45;81.73
58662;BME280;44432;49.786;22.760;2023-03-25T04:00:34;98186.19;;;11.44;82.16
58662;BME280;44432;49.786;22.760;2023-03-25T04:03:10;98184.48;;;11.43;82.13
58662;BME280;44432;49.786;22.760;2023-03-25T04:05:48;98181.34;;;11.42;82.39
58662;BME280;44432;49.786;22.760;2023-03-25T04:08:28;98189.52;;;11.47;82.45
58662;BME280;44432;49.786;22.760;2023-03-25T04:11:03;98191.71;;;11.48;82.45
58662;BME280;44432;49.786;22.760;2023-03-25T04:13:39;98192.96;;;11.51;82.43
58662;BME280;44432;49.786;22.760;2023-03-25T04:16:12;98191.80;;;11.51;82.15
58662;BME280;44432;49.786;22.760;2023-03-25T04:18:43;98193.14;;;11.48;82.06
58662;BME280;44432;49.786;22.760;2023-03-25T04:21:16;98192.51;;;11.43;82.16
58662;BME280;44432;49.786;22.760;2023-03-25T04:23:46;98198.95;;;11.42;82.21
58662;BME280;44432;49.786;22.760;2023-03-25T04:26:18;98198.58;;;11.41;82.46
58662;BME280;44432;49.786;22.760;2023-03-25T04:28:50;98204.95;;;11.40;82.40
58662;BME280;44432;49.786;22.760;2023-03-25T04:31:20;98208.21;;;11.39;82.69
58662;BME280;44432;49.786;22.760;2023-03-25T04:33:51;98215.33;;;11.37;82.58
58662;BME280;44432;49.786;22.760;2023-03-25T04:36:22;98219.59;;;11.36;82.61
58662;BME280;44432;49.786;22.760;2023-03-25T04:38:52;98217.56;;;11.35;82.64
58662;BME280;44432;49.786;22.760;2023-03-25T04:41:24;98217.02;;;11.33;82.70
58662;BME280;44432;49.786;22.760;2023-03-25T04:43:56;98217.73;;;11.32;82.89
58662;BME280;44432;49.786;22.760;2023-03-25T04:46:27;98222.27;;;11.32;82.86
58662;BME280;44432;49.786;22.760;2023-03-25T04:48:58;98219.94;;;11.31;83.05
58662;BME280;44432;49.786;22.760;2023-03-25T04:51:32;98215.65;;;11.30;82.98
58662;BME280;44432;49.786;22.760;2023-03-25T04:54:03;98216.29;;;11.30;83.03
58662;BME280;44432;49.786;22.760;2023-03-25T04:56:34;98219.19;;;11.30;83.07
58662;BME280;44432;49.786;22.760;2023-03-25T04:59:06;98219.98;;;11.23;82.86
58662;BME280;44432;49.786;22.760;2023-03-25T05:01:38;98215.11;;;11.14;82.98
58662;BME280;44432;49.786;22.760;2023-03-25T05:04:11;98216.97;;;11.08;83.27
58662;BME280;44432;49.786;22.760;2023-03-25T05:06:44;98217.91;;;11.04;83.56
58662;BME280;44432;49.786;22.760;2023-03-25T05:09:18;98217.73;;;11.03;83.85
58662;BME280;44432;49.786;22.760;2023-03-25T05:11:51;98215.42;;;11.04;84.35
58662;BME280;44432;49.786;22.760;2023-03-25T05:14:22;98211.59;;;11.06;84.52
58662;BME280;44432;49.786;22.760;2023-03-25T05:16:53;98211.66;;;11.10;84.49
58662;BME280;44432;49.786;22.760;2023-03-25T05:19:25;98209.38;;;11.13;84.73
58662;BME280;44432;49.786;22.760;2023-03-25T05:21:57;98204.26;;;11.17;84.75
58662;BME280;44432;49.786;22.760;2023-03-25T05:24:28;98205.43;;;11.18;84.57
58662;BME280;44432;49.786;22.760;2023-03-25T05:26:59;98209.26;;;11.19;84.37
58662;BME280;44432;49.786;22.760;2023-03-25T05:29:31;98205.50;;;11.19;84.71
58662;BME280;44432;49.786;22.760;2023-03-25T05:32:02;98210.43;;;11.21;84.57
58662;BME280;44432;49.786;22.760;2023-03-25T05:34:33;98207.08;;;11.19;84.41
58662;BME280;44432;49.786;22.760;2023-03-25T05:37:03;98208.84;;;11.16;84.49
58662;BME280;44432;49.786;22.760;2023-03-25T05:39:36;98207.40;;;11.15;84.63
58662;BME280;44432;49.786;22.760;2023-03-25T05:42:07;98210.77;;;11.14;84.59
58662;BME280;44432;49.786;22.760;2023-03-25T05:44:39;98212.52;;;11.14;84.82
58662;BME280;44432;49.786;22.760;2023-03-25T05:47:15;98211.64;;;11.17;85.17
58662;BME280;44432;49.786;22.760;2023-03-25T05:49:46;98213.64;;;11.19;85.37
58662;BME280;44432;49.786;22.760;2023-03-25T05:52:18;98209.73;;;11.22;85.29
58662;BME280;44432;49.786;22.760;2023-03-25T05:54:49;98215.19;;;11.27;85.61
58662;BME280;44432;49.786;22.760;2023-03-25T05:57:20;98215.05;;;11.33;85.44
58662;BME280;44432;49.786;22.760;2023-03-25T05:59:51;98215.11;;;11.38;85.40
58662;BME280;44432;49.786;22.760;2023-03-25T06:02:21;98209.75;;;11.39;85.25
58662;BME280;44432;49.786;22.760;2023-03-25T06:04:52;98211.01;;;11.42;85.01
58662;BME280;44432;49.786;22.760;2023-03-25T06:07:23;98209.91;;;11.45;85.10
58662;BME280;44432;49.786;22.760;2023-03-25T06:09:54;98208.48;;;11.46;84.97
58662;BME280;44432;49.786;22.760;2023-03-25T06:12:25;98208.92;;;11.46;84.79
58662;BME280;44432;49.786;22.760;2023-03-25T06:14:55;98210.04;;;11.47;84.78
58662;BME280;44432;49.786;22.760;2023-03-25T06:17:26;98208.30;;;11.47;84.78
58662;BME280;44432;49.786;22.760;2023-03-25T06:19:58;98215.14;;;11.50;84.90
58662;BME280;44432;49.786;22.760;2023-03-25T06:22:28;98215.55;;;11.52;84.93
58662;BME280;44432;49.786;22.760;2023-03-25T06:25:02;98221.88;;;11.55;85.09
58662;BME280;44432;49.786;22.760;2023-03-25T06:27:33;98224.61;;;11.58;85.09
58662;BME280;44432;49.786;22.760;2023-03-25T06:30:11;98228.30;;;11.61;85.06
58662;BME280;44432;49.786;22.760;2023-03-25T06:32:42;98225.73;;;11.63;85.03
58662;BME280;44432;49.786;22.760;2023-03-25T06:35:13;98228.30;;;11.64;85.17
58662;BME280;44432;49.786;22.760;2023-03-25T06:37:48;98231.26;;;11.65;84.98
58662;BME280;44432;49.786;22.760;2023-03-25T06:40:19;98231.66;;;11.63;84.81
58662;BME280;44432;49.786;22.760;2023-03-25T06:42:52;98228.59;;;11.62;84.83
58662;BME280;44432;49.786;22.760;2023-03-25T06:45:23;98227.89;;;11.63;85.05
58662;BME280;44432;49.786;22.760;2023-03-25T06:47:54;98226.85;;;11.63;85.05
58662;BME280;44432;49.786;22.760;2023-03-25T06:50:25;98221.42;;;11.65;85.04
58662;BME280;44432;49.786;22.760;2023-03-25T06:52:56;98225.02;;;11.68;84.96
58662;BME280;44432;49.786;22.760;2023-03-25T06:55:27;98225.19;;;11.69;84.95
58662;BME280;44432;49.786;22.760;2023-03-25T06:57:58;98225.20;;;11.70;84.98
58662;BME280;44432;49.786;22.760;2023-03-25T07:00:28;98227.10;;;11.74;85.16
58662;BME280;44432;49.786;22.760;2023-03-25T07:02:59;98227.25;;;11.76;85.02
58662;BME280;44432;49.786;22.760;2023-03-25T07:05:30;98224.35;;;11.80;85.06
58662;BME280;44432;49.786;22.760;2023-03-25T07:08:01;98227.19;;;11.87;85.25
58662;BME280;44432;49.786;22.760;2023-03-25T07:10:32;98227.56;;;11.92;85.31
58662;BME280;44432;49.786;22.760;2023-03-25T07:13:02;98227.50;;;11.96;84.93
58662;BME280;44432;49.786;22.760;2023-03-25T07:15:33;98227.91;;;11.99;84.98
58662;BME280;44432;49.786;22.760;2023-03-25T07:18:04;98226.78;;;12.02;84.84
58662;BME280;44432;49.786;22.760;2023-03-25T07:20:35;98225.50;;;12.06;84.66
58662;BME280;44432;49.786;22.760;2023-03-25T07:23:05;98225.08;;;12.09;84.40
58662;BME280;44432;49.786;22.760;2023-03-25T07:25:36;98222.55;;;12.12;84.56
58662;BME280;44432;49.786;22.760;2023-03-25T07:28:07;98228.98;;;12.15;84.42
58662;BME280;44432;49.786;22.760;2023-03-25T07:30:38;98232.13;;;12.16;84.19
58662;BME280;44432;49.786;22.760;2023-03-25T07:33:08;98233.33;;;12.14;84.25
58662;BME280;44432;49.786;22.760;2023-03-25T07:35:39;98234.64;;;12.14;84.24
58662;BME280;44432;49.786;22.760;2023-03-25T07:38:10;98233.69;;;12.14;84.27
58662;BME280;44432;49.786;22.760;2023-03-25T07:40:41;98233.33;;;12.14;83.94
58662;BME280;44432;49.786;22.760;2023-03-25T07:43:11;98232.83;;;12.13;84.12
58662;BME280;44432;49.786;22.760;2023-03-25T07:45:42;98235.52;;;12.13;84.25
58662;BME280;44432;49.786;22.760;2023-03-25T07:48:13;98238.75;;;12.12;84.25
58662;BME280;44432;49.786;22.760;2023-03-25T07:50:44;98236.88;;;12.14;84.29
58662;BME280;44432;49.786;22.760;2023-03-25T07:53:17;98240.10;;;12.15;84.19
58662;BME280;44432;49.786;22.760;2023-03-25T07:55:48;98243.61;;;12.16;84.45
58662;BME280;44432;49.786;22.760;2023-03-25T07:58:20;98243.24;;;12.16;84.36
58662;BME280;44432;49.786;22.760;2023-03-25T08:00:50;98243.59;;;12.15;84.12
58662;BME280;44432;49.786;22.760;2023-03-25T08:03:21;98240.15;;;12.15;83.99
58662;BME280;44432;49.786;22.760;2023-03-25T08:05:52;98235.52;;;12.12;84.12
58662;BME280;44432;49.786;22.760;2023-03-25T08:08:23;98240.20;;;12.09;84.18
58662;BME280;44432;49.786;22.760;2023-03-25T08:10:54;98238.83;;;12.05;84.33
58662;BME280;44432;49.786;22.760;2023-03-25T08:13:25;98243.40;;;12.03;84.29
58662;BME280;44432;49.786;22.760;2023-03-25T08:15:56;98241.56;;;11.99;84.27
58662;BME280;44432;49.786;22.760;2023-03-25T08:18:27;98245.80;;;11.96;84.19
58662;BME280;44432;49.786;22.760;2023-03-25T08:20:58;98244.73;;;11.95;84.56
58662;BME280;44432;49.786;22.760;2023-03-25T08:23:29;98254.10;;;11.95;84.73
58662;BME280;44432;49.786;22.760;2023-03-25T08:26:02;98252.02;;;11.93;84.60
58662;BME280;44432;49.786;22.760;2023-03-25T08:28:33;98255.59;;;11.91;84.68
58662;BME280;44432;49.786;22.760;2023-03-25T08:31:06;98257.83;;;11.88;84.67
58662;BME280;44432;49.786;22.760;2023-03-25T08:33:36;98260.17;;;11.81;84.51
58662;BME280;44432;49.786;22.760;2023-03-25T08:36:09;98260.85;;;11.74;84.78
58662;BME280;44432;49.786;22.760;2023-03-25T08:38:42;98260.71;;;11.73;85.21
58662;BME280;44432;49.786;22.760;2023-03-25T08:41:13;98259.77;;;11.72;85.07
58662;BME280;44432;49.786;22.760;2023-03-25T08:43:44;98259.64;;;11.71;84.99
58662;BME280;44432;49.786;22.760;2023-03-25T08:46:15;98260.27;;;11.70;84.98
58662;BME280;44432;49.786;22.760;2023-03-25T08:48:46;98260.55;;;11.73;85.08
58662;BME280;44432;49.786;22.760;2023-03-25T08:51:17;98260.89;;;11.74;85.14
58662;BME280;44432;49.786;22.760;2023-03-25T08:53:48;98264.19;;;11.77;85.02
58662;BME280;44432;49.786;22.760;2023-03-25T08:56:19;98260.50;;;11.78;85.34
58662;BME280;44432;49.786;22.760;2023-03-25T08:58:50;98264.06;;;11.80;85.46
58662;BME280;44432;49.786;22.760;2023-03-25T09:01:21;98265.04;;;11.82;85.75
58662;BME280;44432;49.786;22.760;2023-03-25T09:03:52;98268.55;;;11.83;85.50
58662;BME280;44432;49.786;22.760;2023-03-25T09:06:24;98271.66;;;11.78;85.44
58662;BME280;44432;49.786;22.760;2023-03-25T09:08:55;98271.54;;;11.75;85.06
58662;BME280;44432;49.786;22.760;2023-03-25T09:11:26;98272.78;;;11.73;85.49
58662;BME280;44432;49.786;22.760;2023-03-25T09:13:57;98276.05;;;11.73;85.45
58662;BME280;44432;49.786;22.760;2023-03-25T09:16:31;98277.33;;;11.74;85.73
58662;BME280;44432;49.786;22.760;2023-03-25T09:19:02;98279.44;;;11.76;85.85
58662;BME280;44432;49.786;22.760;2023-03-25T09:21:33;98278.17;;;11.79;86.11
58662;BME280;44432;49.786;22.760;2023-03-25T09:24:03;98281.25;;;11.84;86.09
58662;BME280;44432;49.786;22.760;2023-03-25T09:26:34;98286.40;;;11.85;85.89
58662;BME280;44432;49.786;22.760;2023-03-25T09:29:06;98285.06;;;11.80;85.74
58662;BME280;44432;49.786;22.760;2023-03-25T09:31:37;98285.77;;;11.76;85.79
58662;BME280;44432;49.786;22.760;2023-03-25T09:34:08;98291.67;;;11.75;85.98
58662;BME280;44432;49.786;22.760;2023-03-25T09:36:39;98288.21;;;11.73;85.95
58662;BME280;44432;49.786;22.760;2023-03-25T09:39:11;98295.54;;;11.67;85.08
58662;BME280;44432;49.786;22.760;2023-03-25T09:41:59;98295.88;;;11.57;84.52
58662;BME280;44432;49.786;22.760;2023-03-25T09:44:36;98294.64;;;11.49;84.76
58662;BME280;44432;49.786;22.760;2023-03-25T09:47:09;98295.43;;;11.40;84.48
58662;BME280;44432;49.786;22.760;2023-03-25T09:49:43;98297.48;;;11.32;84.72
58662;BME280;44432;49.786;22.760;2023-03-25T09:52:20;98299.50;;;11.26;85.16
58662;BME280;44432;49.786;22.760;2023-03-25T09:54:53;98300.06;;;11.21;84.99
58662;BME280;44432;49.786;22.760;2023-03-25T09:57:29;98298.64;;;11.15;84.80
58662;BME280;44432;49.786;22.760;2023-03-25T10:00:02;98308.96;;;11.07;84.27
58662;BME280;44432;49.786;22.760;2023-03-25T10:02:40;98307.58;;;11.00;84.77
58662;BME280;44432;49.786;22.760;2023-03-25T10:05:35;98311.02;;;10.97;85.17
58662;BME280;44432;49.786;22.760;2023-03-25T10:08:15;98310.77;;;10.92;84.75
58662;BME280;44432;49.786;22.760;2023-03-25T10:10:54;98312.77;;;10.85;84.70
58662;BME280;44432;49.786;22.760;2023-03-25T10:13:42;98322.41;;;10.81;84.90
58662;BME280;44432;49.786;22.760;2023-03-25T10:16:25;98325.14;;;10.80;85.05
58662;BME280;44432;49.786;22.760;2023-03-25T10:19:14;98326.58;;;10.77;84.57
58662;BME280;44432;49.786;22.760;2023-03-25T10:21:54;98328.74;;;10.72;84.57
58662;BME280;44432;49.786;22.760;2023-03-25T10:24:30;98329.89;;;10.71;84.93
58662;BME280;44432;49.786;22.760;2023-03-25T10:27:04;98330.55;;;10.70;84.88
58662;BME280;44432;49.786;22.760;2023-03-25T10:29:38;98328.84;;;10.69;84.97
58662;BME280;44432;49.786;22.760;2023-03-25T10:32:19;98331.27;;;10.72;85.33
58662;BME280;44432;49.786;22.760;2023-03-25T10:34:56;98329.40;;;10.76;85.06
58662;BME280;44432;49.786;22.760;2023-03-25T10:37:32;98327.15;;;10.77;84.90
58662;BME280;44432;49.786;22.760;2023-03-25T10:40:15;98327.65;;;10.78;85.08
58662;BME280;44432;49.786;22.760;2023-03-25T10:42:57;98325.17;;;10.82;85.28
58662;BME280;44432;49.786;22.760;2023-03-25T10:45:29;98320.70;;;10.89;85.69
58662;BME280;44432;49.786;22.760;2023-03-25T10:48:03;98322.39;;;10.97;86.22
58662;BME280;44432;49.786;22.760;2023-03-25T10:50:36;98316.81;;;11.03;85.87
58662;BME280;44432;49.786;22.760;2023-03-25T10:53:13;98318.77;;;11.06;85.67
58662;BME280;44432;49.786;22.760;2023-03-25T10:55:49;98317.55;;;11.09;85.73
58662;BME280;44432;49.786;22.760;2023-03-25T10:58:24;98320.29;;;11.11;85.38
58662;BME280;44432;49.786;22.760;2023-03-25T11:00:55;98321.55;;;11.14;85.54
58662;BME280;44432;49.786;22.760;2023-03-25T11:03:30;98316.14;;;11.16;85.40
58662;BME280;44432;49.786;22.760;2023-03-25T11:06:04;98317.42;;;11.20;85.69
58662;BME280;44432;49.786;22.760;2023-03-25T11:08:35;98316.70;;;11.18;85.13
58662;BME280;44432;49.786;22.760;2023-03-25T11:11:06;98312.80;;;11.18;85.38
58662;BME280;44432;49.786;22.760;2023-03-25T11:13:37;98315.20;;;11.20;85.29
58662;BME280;44432;49.786;22.760;2023-03-25T11:16:11;98313.27;;;11.22;85.41
58662;BME280;44432;49.786;22.760;2023-03-25T11:18:42;98309.54;;;11.26;85.50
58662;BME280;44432;49.786;22.760;2023-03-25T11:21:14;98307.77;;;11.28;85.10
58662;BME280;44432;49.786;22.760;2023-03-25T11:23:47;98308.77;;;11.34;85.55
58662;BME280;44432;49.786;22.760;2023-03-25T11:26:21;98308.27;;;11.42;85.77
58662;BME280;44432;49.786;22.760;2023-03-25T11:28:55;98308.39;;;11.53;86.03
58662;BME280;44432;49.786;22.760;2023-03-25T11:31:35;98305.38;;;11.64;86.02
58662;BME280;44432;49.786;22.760;2023-03-25T11:34:13;98296.94;;;11.72;85.66
58662;BME280;44432;49.786;22.760;2023-03-25T11:36:53;98296.10;;;11.79;85.68
58662;BME280;44432;49.786;22.760;2023-03-25T11:39:31;98290.73;;;11.85;85.39
58662;BME280;44432;49.786;22.760;2023-03-25T11:42:12;98291.66;;;11.91;85.06
58662;BME280;44432;49.786;22.760;2023-03-25T11:44:50;98292.48;;;11.93;84.14
58662;BME280;44432;49.786;22.760;2023-03-25T11:47:24;98293.39;;;11.94;83.88
58662;BME280;44432;49.786;22.760;2023-03-25T11:49:55;98291.08;;;11.98;84.16
58662;BME280;44432;49.786;22.760;2023-03-25T11:52:38;98283.59;;;12.04;84.21
58662;BME280;44432;49.786;22.760;2023-03-25T11:55:17;98279.42;;;12.12;84.34
58662;BME280;44432;49.786;22.760;2023-03-25T11:57:49;98279.52;;;12.19;84.28
58662;BME280;44432;49.786;22.760;2023-03-25T12:00:35;98282.95;;;12.22;83.92
58662;BME280;44432;49.786;22.760;2023-03-25T12:03:17;98283.11;;;12.23;83.31
58662;BME280;44432;49.786;22.760;2023-03-25T12:06:02;98278.46;;;12.19;83.18
58662;BME280;44432;49.786;22.760;2023-03-25T12:08:42;98272.74;;;12.18;83.27
58662;BME280;44432;49.786;22.760;2023-03-25T12:11:15;98269.06;;;12.16;82.78
58662;BME280;44432;49.786;22.760;2023-03-25T12:14:01;98269.66;;;12.13;82.64
58662;BME280;44432;49.786;22.760;2023-03-25T12:16:43;98260.55;;;12.07;82.80
58662;BME280;44432;49.786;22.760;2023-03-25T12:19:25;98260.55;;;12.08;83.27
58662;BME280;44432;49.786;22.760;2023-03-25T12:22:12;98253.57;;;12.08;83.57
58662;BME280;44432;49.786;22.760;2023-03-25T12:24:58;98259.39;;;12.18;83.35
58662;BME280;44432;49.786;22.760;2023-03-25T12:27:40;98259.17;;;12.21;83.40
58662;BME280;44432;49.786;22.760;2023-03-25T12:30:22;98255.55;;;12.25;83.40
58662;BME280;44432;49.786;22.760;2023-03-25T12:33:00;98255.58;;;12.22;82.84
58662;BME280;44432;49.786;22.760;2023-03-25T12:35:40;98257.42;;;12.17;82.75
58662;BME280;44432;49.786;22.760;2023-03-25T12:38:21;98258.79;;;12.15;83.03
58662;BME280;44432;49.786;22.760;2023-03-25T12:44:45;98243.91;;;12.01;83.00
58662;BME280;44432;49.786;22.760;2023-03-25T12:47:23;98244.30;;;11.97;83.10
58662;BME280;44432;49.786;22.760;2023-03-25T12:50:03;98244.55;;;11.94;83.25
58662;BME280;44432;49.786;22.760;2023-03-25T12:52:40;98245.93;;;11.97;83.62
58662;BME280;44432;49.786;22.760;2023-03-25T12:55:45;98243.47;;;11.99;83.11
58662;BME280;44432;49.786;22.760;2023-03-25T12:58:36;98238.38;;;12.02;82.96
58662;BME280;44432;49.786;22.760;2023-03-25T13:01:16;98232.81;;;12.11;83.21
58662;BME280;44432;49.786;22.760;2023-03-25T13:04:17;98226.25;;;12.26;83.25
58662;BME280;44432;49.786;22.760;2023-03-25T13:06:57;98226.98;;;12.46;82.80
58662;BME280;44432;49.786;22.760;2023-03-25T13:09:34;98235.18;;;12.64;82.79
58662;BME280;44432;49.786;22.760;2023-03-25T13:12:10;98240.41;;;12.81;82.74
58662;BME280;44432;49.786;22.760;2023-03-25T13:14:47;98241.83;;;12.91;82.41
58662;BME280;44432;49.786;22.760;2023-03-25T13:17:24;98236.80;;;12.98;81.81
58662;BME280;44432;49.786;22.760;2023-03-25T13:20:00;98238.51;;;13.00;81.48
58662;BME280;44432;49.786;22.760;2023-03-25T13:22:37;98235.63;;;13.03;81.47
58662;BME280;44432;49.786;22.760;2023-03-25T13:25:17;98240.80;;;13.03;81.27
58662;BME280;44432;49.786;22.760;2023-03-25T13:27:50;98235.92;;;13.01;81.01
58662;BME280;44432;49.786;22.760;2023-03-25T13:30:29;98234.55;;;13.02;81.18
58662;BME280;44432;49.786;22.760;2023-03-25T13:33:09;98227.69;;;13.06;81.15
58662;BME280;44432;49.786;22.760;2023-03-25T13:35:45;98222.89;;;13.09;81.08
58662;BME280;44432;49.786;22.760;2023-03-25T13:38:20;98225.52;;;13.14;80.61
58662;BME280;44432;49.786;22.760;2023-03-25T13:41:02;98224.58;;;13.09;79.55
58662;BME280;44432;49.786;22.760;2023-03-25T13:43:44;98216.93;;;13.06;79.86